Time;durP1;ratioP1;P1;durP2;ratioP2;P2;SDS_P1;SDS_P2;PMS_P1;PMS_P2;Temp;Humidity;BMP_temperature;BMP_pressure;BME280_temperature;BME280_humidity;BME280_pressure;Samples;Min_cycle;Max_cycle;Signal;HPM_P1;HPM_P2
2022/09/05 00:02:04;;;;;;;9.63;9.03;;;20.80;99.90;;;;;;5032120;28;20440;-65
2022/09/05 00:04:53;;;;;;;9.50;8.90;;;20.80;99.90;;;;;;5052075;28;20412;-66
2022/09/05 00:07:30;;;;;;;9.67;9.07;;;20.70;99.90;;;;;;5050365;28;20482;-69
2022/09/05 00:10:29;;;;;;;10.77;9.97;;;20.70;99.90;;;;;;5036889;28;20428;-66
2022/09/05 00:12:57;;;;;;;10.23;9.53;;;20.70;99.90;;;;;;5050087;28;20791;-66
2022/09/05 00:15:48;;;;;;;10.27;9.47;;;20.70;99.90;;;;;;5051998;28;20415;-66
2022/09/05 00:18:46;;;;;;;10.30;9.50;;;20.70;99.90;;;;;;5050637;28;20448;-65
2022/09/05 00:21:36;;;;;;;10.67;9.87;;;20.70;99.90;;;;;;5052042;28;20376;-66
2022/09/05 00:24:37;;;;;;;11.53;10.50;;;20.60;99.90;;;;;;5051294;28;20491;-66
2022/09/05 00:27:16;;;;;;;10.70;9.97;;;20.60;99.90;;;;;;5031245;28;20401;-66
2022/09/05 00:30:05;;;;;;;10.40;9.57;;;20.60;99.90;;;;;;5047615;28;20431;-66
2022/09/05 00:32:41;;;;;;;11.57;10.67;;;20.60;99.90;;;;;;5051263;28;20428;-65
2022/09/05 00:35:46;;;;;;;10.47;9.77;;;20.50;99.90;;;;;;5052738;28;20400;-65
2022/09/05 00:38:25;;;;;;;11.00;10.30;;;20.50;99.90;;;;;;5054438;28;20451;-65
2022/09/05 00:40:55;;;;;;;11.17;10.17;;;20.50;99.90;;;;;;5055424;28;20475;-66
2022/09/05 00:43:30;;;;;;;11.97;11.07;;;20.50;99.90;;;;;;5045841;28;20437;-66
2022/09/05 00:45:58;;;;;;;11.80;10.90;;;20.50;99.90;;;;;;5034921;28;20394;-66
2022/09/05 00:48:50;;;;;;;11.43;10.53;;;20.50;99.90;;;;;;5042637;28;20436;-66
2022/09/05 00:51:36;;;;;;;11.30;10.50;;;20.50;99.90;;;;;;5054807;28;20854;-66
2022/09/05 00:54:14;;;;;;;11.60;10.60;;;20.40;99.90;;;;;;5036680;28;21203;-66
2022/09/05 00:57:04;;;;;;;12.33;11.43;;;20.40;99.90;;;;;;5040514;28;20464;-69
2022/09/05 00:59:52;;;;;;;11.10;10.10;;;20.40;99.90;;;;;;5051168;28;20463;-66
2022/09/05 01:02:29;;;;;;;11.73;10.93;;;20.40;99.90;;;;;;5035947;28;20436;-66
2022/09/05 01:05:15;;;;;;;11.17;10.47;;;20.30;99.90;;;;;;5034578;28;20451;-66
2022/09/05 01:08:06;;;;;;;13.00;11.90;;;20.30;99.90;;;;;;5035352;28;20777;-70
2022/09/05 01:10:50;;;;;;;12.70;11.70;;;20.30;99.90;;;;;;5054274;28;20494;-66
2022/09/05 01:13:53;;;;;;;12.33;11.37;;;20.30;99.90;;;;;;5055440;28;20415;-66
2022/09/05 01:16:44;;;;;;;11.60;10.80;;;20.30;99.90;;;;;;5034754;28;20460;-65
2022/09/05 01:19:18;;;;;;;12.30;11.40;;;20.30;99.90;;;;;;5034578;28;20443;-65
2022/09/05 01:22:22;;;;;;;11.53;10.67;;;20.30;99.90;;;;;;5034118;28;20384;-70
2022/09/05 01:25:13;;;;;;;13.03;12.00;;;20.20;99.90;;;;;;5034223;28;20404;-65
2022/09/05 01:27:48;;;;;;;11.27;10.47;;;20.20;99.90;;;;;;5034450;28;20408;-65
2022/09/05 01:30:37;;;;;;;11.10;10.30;;;20.10;99.90;;;;;;5040312;28;20780;-66
2022/09/05 01:33:06;;;;;;;11.67;10.77;;;20.10;99.90;;;;;;5016313;28;20421;-66
2022/09/05 01:35:57;;;;;;;10.97;10.27;;;20.10;99.90;;;;;;5034316;28;20444;-66
2022/09/05 01:38:45;;;;;;;11.37;10.33;;;20.10;99.90;;;;;;5040457;28;20436;-66
2022/09/05 01:41:37;;;;;;;11.90;10.97;;;20.10;99.90;;;;;;5054573;28;20414;-66
2022/09/05 01:44:29;;;;;;;11.07;10.27;;;20.10;99.90;;;;;;5048527;28;20435;-66
2022/09/05 01:47:16;;;;;;;12.00;11.10;;;20.10;99.90;;;;;;5051725;28;20439;-65
2022/09/05 01:50:00;;;;;;;11.90;11.00;;;20.10;99.90;;;;;;5052610;28;20979;-69
2022/09/05 01:53:01;;;;;;;11.50;10.50;;;20.10;99.90;;;;;;5034273;28;20429;-65
2022/09/05 01:55:47;;;;;;;11.37;10.53;;;20.10;99.90;;;;;;5034503;28;20441;-66
2022/09/05 01:58:32;;;;;;;10.70;9.90;;;20.00;99.90;;;;;;5037330;28;20439;-65
2022/09/05 02:01:08;;;;;;;11.27;10.50;;;20.00;99.90;;;;;;5053535;28;20474;-66
2022/09/05 02:04:08;;;;;;;11.20;10.30;;;20.00;99.90;;;;;;5054229;28;20404;-66
2022/09/05 02:06:41;;;;;;;11.50;10.60;;;20.00;99.90;;;;;;5033921;28;20427;-65
2022/09/05 02:09:37;;;;;;;12.60;11.70;;;19.90;99.90;;;;;;5043484;28;20919;-65
2022/09/05 02:12:19;;;;;;;12.17;11.27;;;19.90;99.90;;;;;;5053247;28;20405;-66
2022/09/05 02:14:57;;;;;;;11.83;11.00;;;19.90;99.90;;;;;;5053404;28;20962;-70
2022/09/05 02:17:30;;;;;;;12.70;11.37;;;19.90;99.90;;;;;;5053909;28;20562;-65
2022/09/05 02:20:21;;;;;;;11.90;11.10;;;19.90;99.90;;;;;;5051042;28;20447;-66
2022/09/05 02:23:13;;;;;;;11.80;10.90;;;19.90;99.90;;;;;;5034713;28;20780;-69
2022/09/05 02:25:49;;;;;;;13.17;12.27;;;19.80;99.90;;;;;;5033962;28;20397;-65
2022/09/05 02:28:35;;;;;;;12.67;11.77;;;19.80;99.90;;;;;;5035965;28;20420;-66
2022/09/05 02:31:13;;;;;;;13.10;12.10;;;19.80;99.90;;;;;;5053321;28;20519;-65
2022/09/05 02:34:05;;;;;;;13.00;12.00;;;19.80;99.90;;;;;;5053691;28;20441;-66
2022/09/05 02:36:41;;;;;;;13.80;12.60;;;19.80;99.90;;;;;;5052723;28;20455;-67
2022/09/05 02:39:33;;;;;;;14.80;13.60;;;19.80;99.90;;;;;;5051204;28;20424;-67
2022/09/05 02:42:07;;;;;;;14.17;13.17;;;19.70;99.90;;;;;;5033781;28;20433;-67
2022/09/05 02:44:39;;;;;;;13.57;12.57;;;19.70;99.90;;;;;;5033676;28;20761;-67
2022/09/05 02:47:23;;;;;;;14.00;12.90;;;19.60;99.90;;;;;;5032693;28;20528;-67
2022/09/05 02:50:22;;;;;;;14.57;13.40;;;19.60;99.90;;;;;;5047465;28;20547;-71
2022/09/05 02:52:49;;;;;;;13.00;11.90;;;19.60;99.90;;;;;;5033198;28;20484;-71
2022/09/05 02:55:34;;;;;;;13.33;12.33;;;19.60;99.90;;;;;;5033296;28;20415;-67
2022/09/05 02:58:09;;;;;;;12.70;11.70;;;19.60;99.90;;;;;;5026706;28;20979;-67
2022/09/05 03:00:43;;;;;;;13.93;12.83;;;19.60;99.90;;;;;;5050614;28;20439;-67
2022/09/05 03:03:11;;;;;;;14.10;12.90;;;19.60;99.90;;;;;;5050914;28;20999;-67
2022/09/05 03:05:46;;;;;;;14.60;13.30;;;19.50;99.90;;;;;;5052982;28;20415;-67
2022/09/05 03:08:37;;;;;;;14.57;13.43;;;19.50;99.90;;;;;;5052526;28;20399;-67
2022/09/05 03:11:38;;;;;;;14.10;12.90;;;19.40;99.90;;;;;;5049965;28;20451;-67
2022/09/05 03:14:23;;;;;;;14.47;13.37;;;19.40;99.90;;;;;;5052131;28;20525;-67
2022/09/05 03:17:07;;;;;;;13.83;12.50;;;19.40;99.90;;;;;;5050215;28;20505;-71
2022/09/05 03:19:41;;;;;;;13.63;12.60;;;19.40;99.90;;;;;;5053068;28;20391;-67
2022/09/05 03:22:21;;;;;;;12.70;11.57;;;19.40;99.90;;;;;;5049690;28;21310;-67
2022/09/05 03:24:58;;;;;;;13.50;12.20;;;19.40;99.90;;;;;;5052666;28;20400;-71
2022/09/05 03:27:51;;;;;;;13.53;12.43;;;19.30;99.90;;;;;;5032854;28;20416;-67
2022/09/05 03:30:23;;;;;;;14.90;13.50;;;19.30;99.90;;;;;;5031886;28;20789;-67
2022/09/05 03:33:24;;;;;;;12.83;11.90;;;19.30;99.90;;;;;;5052633;28;20420;-72
2022/09/05 03:36:21;;;;;;;13.37;12.27;;;19.30;99.90;;;;;;5035343;28;20441;-71
2022/09/05 03:39:01;;;;;;;12.90;11.90;;;19.30;99.90;;;;;;5037213;28;21050;-67
2022/09/05 03:41:57;;;;;;;12.90;12.00;;;19.30;99.90;;;;;;5033510;28;20436;-67
2022/09/05 03:44:32;;;;;;;12.90;11.90;;;19.40;99.90;;;;;;5052522;28;20800;-67
2022/09/05 03:47:16;;;;;;;12.80;11.73;;;19.30;99.90;;;;;;5050869;28;20427;-67
2022/09/05 03:49:42;;;;;;;13.53;12.43;;;19.30;99.90;;;;;;5052390;28;20480;-67
2022/09/05 03:52:29;;;;;;;14.20;13.00;;;19.30;99.90;;;;;;5047472;28;20463;-67
2022/09/05 03:55:32;;;;;;;13.03;11.97;;;19.30;99.90;;;;;;5045424;28;20622;-67
2022/09/05 03:58:28;;;;;;;14.60;13.40;;;19.40;99.90;;;;;;5031468;28;21007;-67
2022/09/05 04:01:34;;;;;;;15.20;14.07;;;19.30;99.90;;;;;;5034854;28;20498;-71
2022/09/05 04:04:29;;;;;;;13.63;12.63;;;19.40;99.90;;;;;;5022393;28;20436;-68
2022/09/05 04:06:59;;;;;;;13.37;12.40;;;19.30;99.90;;;;;;4989416;28;20940;-68
2022/09/05 04:09:39;;;;;;;13.20;11.90;;;19.30;99.90;;;;;;5043725;28;20442;-68
2022/09/05 04:12:30;;;;;;;13.07;12.07;;;19.30;99.90;;;;;;5038756;28;20991;-68
2022/09/05 04:15:12;;;;;;;12.60;11.60;;;19.30;99.90;;;;;;5048796;28;20965;-68
2022/09/05 04:17:53;;;;;;;13.23;12.23;;;19.30;99.90;;;;;;5049472;28;20536;-68
2022/09/05 04:20:29;;;;;;;12.30;11.20;;;19.30;99.90;;;;;;5049739;28;20400;-68
2022/09/05 04:23:23;;;;;;;12.67;11.60;;;19.30;99.90;;;;;;5031416;28;20412;-73
2022/09/05 04:26:13;;;;;;;13.43;12.20;;;19.30;99.90;;;;;;5017652;28;20432;-68
2022/09/05 04:28:45;;;;;;;13.37;12.27;;;19.30;99.90;;;;;;5033575;28;20444;-68
2022/09/05 04:31:24;;;;;;;14.37;13.20;;;19.30;99.90;;;;;;5023856;28;20527;-68
2022/09/05 04:34:41;;;;;;;13.33;12.33;;;19.30;99.90;;;;;;5047238;28;20441;-68
2022/09/05 04:37:09;;;;;;;13.70;12.50;;;19.30;99.90;;;;;;4948614;29;20499;-68
2022/09/05 04:39:35;;;;;;;13.57;12.47;;;19.30;99.90;;;;;;5024804;28;20421;-67
2022/09/05 04:42:04;;;;;;;13.10;11.90;;;19.30;99.90;;;;;;5043204;28;20785;-68
2022/09/05 04:44:39;;;;;;;14.43;13.33;;;19.20;99.90;;;;;;5049790;28;20412;-68
2022/09/05 04:47:10;;;;;;;12.63;11.63;;;19.20;99.90;;;;;;5034337;28;20817;-67
2022/09/05 04:49:45;;;;;;;12.87;11.90;;;19.20;99.90;;;;;;5023827;28;21026;-67
2022/09/05 04:52:29;;;;;;;13.33;12.33;;;19.20;99.90;;;;;;5059824;28;20504;-67
2022/09/05 04:55:16;;;;;;;14.47;13.37;;;19.20;99.90;;;;;;5068187;28;20467;-67
2022/09/05 04:58:06;;;;;;;16.00;14.70;;;19.20;99.90;;;;;;5052292;28;20513;-65
2022/09/05 05:00:41;;;;;;;14.90;13.70;;;19.20;99.90;;;;;;5054779;28;20878;-67
2022/09/05 05:03:14;;;;;;;15.97;14.17;;;19.10;99.90;;;;;;5067757;28;20434;-63
2022/09/05 05:05:48;;;;;;;14.00;12.73;;;19.10;99.90;;;;;;5071584;28;20442;-63
2022/09/05 05:08:20;;;;;;;15.40;13.93;;;19.00;99.90;;;;;;5071058;28;20785;-63
2022/09/05 05:10:50;;;;;;;14.90;13.60;;;19.00;99.90;;;;;;5070823;28;20396;-63
2022/09/05 05:13:39;;;;;;;15.90;14.37;;;19.00;99.90;;;;;;5071391;28;20474;-62
2022/09/05 05:16:14;;;;;;;14.57;13.47;;;19.00;99.90;;;;;;5070367;28;20931;-64
2022/09/05 05:18:47;;;;;;;14.70;13.50;;;18.90;99.90;;;;;;5072013;28;20494;-63
2022/09/05 05:21:23;;;;;;;15.07;13.97;;;18.90;99.90;;;;;;5069065;28;20427;-63
2022/09/05 05:23:57;;;;;;;18.10;15.37;;;18.90;99.90;;;;;;5075421;28;20387;-64
2022/09/05 05:26:44;;;;;;;19.37;17.47;;;18.90;99.90;;;;;;5075516;28;20775;-62
2022/09/05 05:29:15;;;;;;;20.10;17.90;;;18.80;99.90;;;;;;5074721;28;20431;-63
2022/09/05 05:31:57;;;;;;;21.27;17.20;;;18.80;99.90;;;;;;5072735;28;20443;-63
2022/09/05 05:34:28;;;;;;;18.27;16.40;;;18.80;99.90;;;;;;5075267;28;20411;-63
2022/09/05 05:36:56;;;;;;;16.93;15.40;;;18.80;99.90;;;;;;5075123;28;20453;-63
2022/09/05 05:39:25;;;;;;;16.30;14.73;;;18.80;99.90;;;;;;5073742;28;20435;-63
2022/09/05 05:41:55;;;;;;;19.23;16.27;;;18.90;99.90;;;;;;5073787;28;20442;-62
2022/09/05 05:44:29;;;;;;;15.67;14.37;;;18.80;99.90;;;;;;5074884;28;20415;-63
2022/09/05 05:47:03;;;;;;;16.53;14.90;;;18.80;99.90;;;;;;5074984;28;20495;-63
2022/09/05 05:49:58;;;;;;;17.10;15.60;;;18.80;99.90;;;;;;5070772;28;20534;-63
2022/09/05 05:52:54;;;;;;;16.00;14.40;;;18.90;99.90;;;;;;4998598;28;20518;-63
2022/09/05 05:55:34;;;;;;;15.70;14.50;;;18.90;99.90;;;;;;5034244;28;20512;-62
2022/09/05 05:58:12;;;;;;;14.33;12.93;;;18.90;99.90;;;;;;5034198;28;20480;-64
2022/09/05 06:00:58;;;;;;;14.87;13.47;;;18.90;99.90;;;;;;5034967;28;20413;-62
2022/09/05 06:04:05;;;;;;;14.17;12.97;;;18.90;99.90;;;;;;5034846;28;20439;-61
2022/09/05 06:07:12;;;;;;;24.97;14.60;;;18.90;99.90;;;;;;5034262;28;20414;-62
2022/09/05 06:10:20;;;;;;;15.80;14.40;;;18.90;99.90;;;;;;5006064;28;20832;-61
2022/09/05 06:13:10;;;;;;;15.57;14.07;;;18.90;99.90;;;;;;5046618;28;20455;-61
2022/09/05 06:16:12;;;;;;;16.73;15.03;;;19.00;99.90;;;;;;5053845;28;20437;-60
2022/09/05 06:19:06;;;;;;;15.50;14.00;;;19.00;99.90;;;;;;5002450;28;20792;-62
2022/09/05 06:21:35;;;;;;;18.10;14.77;;;19.10;99.90;;;;;;5051492;28;20480;-64
2022/09/05 06:24:15;;;;;;;16.90;15.07;;;19.10;99.90;;;;;;5053496;28;20483;-62
2022/09/05 06:27:04;;;;;;;26.83;19.67;;;19.10;99.90;;;;;;5020367;28;20448;-65
2022/09/05 06:29:38;;;;;;;17.73;14.97;;;19.20;99.90;;;;;;5018334;28;20760;-65
2022/09/05 06:32:25;;;;;;;15.47;14.07;;;19.30;99.90;;;;;;5039033;28;20801;-69
2022/09/05 06:34:58;;;;;;;16.70;14.80;;;19.40;99.90;;;;;;5033364;28;20432;-68
2022/09/05 06:37:49;;;;;;;14.60;13.20;;;19.60;99.90;;;;;;5043642;28;20461;-69
2022/09/05 06:40:54;;;;;;;16.23;12.90;;;20.00;99.90;;;;;;5040205;28;20795;-68
2022/09/05 06:43:30;;;;;;;15.53;13.93;;;20.20;99.90;;;;;;4946368;28;20526;-68
2022/09/05 06:46:09;;;;;;;16.20;14.60;;;20.50;99.90;;;;;;5043914;28;20424;-69
2022/09/05 06:48:43;;;;;;;14.97;13.77;;;20.80;99.90;;;;;;5033799;28;20410;-68
2022/09/05 06:51:20;;;;;;;16.90;15.30;;;21.00;99.90;;;;;;5034595;28;20464;-69
2022/09/05 06:54:04;;;;;;;19.90;14.23;;;21.20;99.90;;;;;;5043338;28;20504;-69
2022/09/05 06:57:21;;;;;;;13.03;11.90;;;21.40;99.90;;;;;;5050222;28;20555;-68
2022/09/05 07:00:10;;;;;;;13.87;12.77;;;21.60;99.90;;;;;;5053438;28;20444;-69
2022/09/05 07:02:45;;;;;;;10.87;9.90;;;21.80;99.90;;;;;;5053559;28;20462;-69
2022/09/05 07:05:43;;;;;;;10.67;9.70;;;21.90;99.70;;;;;;5066752;28;20886;-68
2022/09/05 07:08:39;;;;;;;10.67;9.73;;;22.00;99.30;;;;;;5028629;28;20547;-68
2022/09/05 07:11:10;;;;;;;11.07;10.17;;;22.20;98.90;;;;;;5036862;28;20425;-69
2022/09/05 07:14:03;;;;;;;10.97;10.10;;;22.30;98.80;;;;;;5047119;28;20843;-67
2022/09/05 07:16:50;;;;;;;11.37;10.43;;;22.40;98.60;;;;;;5032959;28;20940;-68
2022/09/05 07:19:32;;;;;;;11.70;10.70;;;22.40;98.90;;;;;;4981696;28;20830;-69
2022/09/05 07:22:31;;;;;;;10.83;10.03;;;22.50;98.20;;;;;;5033069;28;20902;-68
2022/09/05 07:25:02;;;;;;;10.47;9.77;;;22.50;98.10;;;;;;5015039;28;20433;-66
2022/09/05 07:27:41;;;;;;;10.77;9.80;;;22.60;98.40;;;;;;5033352;28;20476;-66
2022/09/05 07:30:07;;;;;;;10.70;9.90;;;22.60;98.20;;;;;;5032411;28;20461;-69
2022/09/05 07:32:48;;;;;;;10.83;8.90;;;22.70;98.00;;;;;;5029445;28;20914;-68
2022/09/05 07:35:22;;;;;;;9.30;8.53;;;22.80;97.70;;;;;;5032459;28;20428;-68
2022/09/05 07:37:56;;;;;;;10.37;9.47;;;22.90;97.70;;;;;;5032866;28;20468;-69
2022/09/05 07:40:23;;;;;;;9.90;9.10;;;22.90;97.50;;;;;;5044974;28;20980;-69
2022/09/05 07:43:06;;;;;;;9.10;8.40;;;23.00;97.00;;;;;;5052789;28;20554;-68
2022/09/05 07:45:35;;;;;;;8.83;8.23;;;23.10;97.00;;;;;;5043094;28;20924;-68
2022/09/05 07:48:10;;;;;;;9.40;8.57;;;23.10;96.70;;;;;;5014941;28;20413;-66
2022/09/05 07:51:04;;;;;;;9.53;8.63;;;23.20;96.60;;;;;;5046174;28;20459;-68
2022/09/05 07:53:31;;;;;;;8.70;8.10;;;23.30;96.50;;;;;;5051862;28;20432;-68
2022/09/05 07:56:01;;;;;;;8.63;7.93;;;23.20;96.20;;;;;;5050710;28;20420;-66
2022/09/05 07:58:51;;;;;;;8.40;7.80;;;23.20;96.30;;;;;;5045797;28;20420;-66
2022/09/05 08:01:21;;;;;;;9.13;8.43;;;23.30;96.10;;;;;;5040879;28;20434;-66
2022/09/05 08:03:54;;;;;;;8.77;7.60;;;23.50;96.20;;;;;;5038212;28;20420;-68
2022/09/05 08:06:24;;;;;;;8.03;7.53;;;23.50;95.90;;;;;;5024490;28;20433;-68
2022/09/05 08:09:02;;;;;;;8.00;7.30;;;23.50;95.70;;;;;;5043460;28;20420;-70
2022/09/05 08:11:31;;;;;;;7.73;7.23;;;23.60;95.50;;;;;;5032752;28;20612;-69
2022/09/05 08:14:01;;;;;;;8.03;7.40;;;23.80;95.70;;;;;;5031958;28;20461;-68
2022/09/05 08:16:27;;;;;;;9.27;8.47;;;23.80;95.40;;;;;;5039864;28;20465;-67
2022/09/05 08:19:03;;;;;;;7.63;6.67;;;23.90;95.30;;;;;;5037602;28;20424;-68
2022/09/05 08:21:50;;;;;;;7.63;6.40;;;23.90;95.10;;;;;;5051451;28;20488;-68
2022/09/05 08:24:16;;;;;;;7.20;6.57;;;24.00;95.00;;;;;;5040250;28;20429;-68
2022/09/05 08:26:46;;;;;;;6.97;6.37;;;24.10;94.40;;;;;;5036829;28;20440;-69
2022/09/05 08:29:17;;;;;;;10.23;7.67;;;24.10;94.50;;;;;;5045737;28;20166;-67
2022/09/05 08:31:51;;;;;;;9.90;6.87;;;24.20;94.30;;;;;;5035768;28;20476;-69
2022/09/05 08:34:22;;;;;;;6.70;6.07;;;24.30;94.00;;;;;;5023639;28;20969;-69
2022/09/05 08:36:49;;;;;;;6.73;6.13;;;24.30;93.40;;;;;;5050731;28;20470;-67
2022/09/05 08:39:23;;;;;;;9.50;8.60;;;24.30;93.20;;;;;;5033322;28;20460;-69
2022/09/05 08:41:55;;;;;;;6.80;6.30;;;24.40;92.20;;;;;;5064594;28;20452;-71
2022/09/05 08:44:32;;;;;;;6.40;5.80;;;24.40;91.90;;;;;;5031534;28;20413;-68
2022/09/05 08:47:11;;;;;;;5.97;5.50;;;24.50;92.00;;;;;;5032229;28;20436;-68
2022/09/05 08:49:42;;;;;;;6.40;5.70;;;24.50;91.60;;;;;;5033913;28;20459;-66
2022/09/05 08:52:08;;;;;;;5.77;5.30;;;24.70;91.70;;;;;;5039693;28;20442;-65
2022/09/05 08:54:37;;;;;;;6.07;5.47;;;24.70;91.80;;;;;;5037981;28;20433;-65
2022/09/05 08:57:44;;;;;;;5.60;5.30;;;24.80;90.90;;;;;;5034269;28;20256;-65
2022/09/05 09:00:13;;;;;;;5.53;5.13;;;24.90;90.30;;;;;;4974373;28;20444;-65
2022/09/05 09:03:06;;;;;;;5.20;4.90;;;25.00;88.90;;;;;;5035692;28;20484;-65
2022/09/05 09:05:53;;;;;;;6.43;6.03;;;25.10;88.20;;;;;;5017441;28;20760;-66
2022/09/05 09:08:28;;;;;;;5.97;5.23;;;25.20;88.70;;;;;;5037281;28;20532;-65
2022/09/05 09:11:15;;;;;;;5.13;4.83;;;25.30;86.00;;;;;;5046852;28;20444;-65
2022/09/05 09:14:13;;;;;;;4.87;4.57;;;25.40;85.00;;;;;;5033963;28;20932;-65
2022/09/05 09:17:06;;;;;;;4.30;4.10;;;25.60;85.20;;;;;;4952979;28;20478;-65
2022/09/05 09:19:45;;;;;;;4.00;3.80;;;25.70;80.50;;;;;;4994008;28;20434;-65
2022/09/05 09:22:41;;;;;;;4.50;4.30;;;25.80;79.20;;;;;;4973444;28;20792;-72
2022/09/05 09:25:15;;;;;;;5.23;4.83;;;25.80;78.60;;;;;;4993268;28;20506;-66
2022/09/05 09:28:02;;;;;;;4.93;4.70;;;25.90;79.70;;;;;;4993521;28;20463;-65
2022/09/05 09:30:32;;;;;;;4.53;4.33;;;26.00;78.90;;;;;;4993082;28;21158;-66
2022/09/05 09:33:03;;;;;;;4.97;4.67;;;26.20;78.10;;;;;;4977184;28;20435;-65
2022/09/05 09:35:41;;;;;;;5.40;5.10;;;26.40;78.20;;;;;;4988956;28;20715;-67
2022/09/05 09:38:15;;;;;;;5.20;4.90;;;26.70;77.60;;;;;;4983186;28;20547;-65
2022/09/05 09:41:11;;;;;;;4.90;4.70;;;27.00;77.30;;;;;;4973077;28;20520;-67
2022/09/05 09:43:56;;;;;;;4.70;4.50;;;27.40;76.20;;;;;;4981210;28;20485;-66
2022/09/05 09:46:33;;;;;;;4.93;4.63;;;27.70;71.20;;;;;;4984866;28;20467;-66
2022/09/05 09:49:26;;;;;;;4.67;4.47;;;28.10;72.20;;;;;;5050794;28;20467;-66
2022/09/05 09:51:57;;;;;;;5.20;4.77;;;28.40;71.00;;;;;;5050923;28;20424;-67
2022/09/05 09:54:54;;;;;;;4.70;4.43;;;28.50;71.10;;;;;;5049598;28;20931;-67
2022/09/05 09:57:57;;;;;;;4.73;4.43;;;28.70;70.90;;;;;;5047539;28;20471;-69
2022/09/05 10:00:23;;;;;;;4.90;4.50;;;29.00;67.70;;;;;;5050954;28;20954;-68
2022/09/05 10:03:00;;;;;;;4.93;4.70;;;29.20;66.40;;;;;;5053922;28;20423;-65
2022/09/05 10:05:32;;;;;;;4.20;4.00;;;29.40;66.30;;;;;;5053184;28;20907;-65
2022/09/05 10:08:33;;;;;;;4.17;3.97;;;29.60;62.70;;;;;;5046819;28;20444;-65
2022/09/05 10:11:18;;;;;;;4.30;4.10;;;29.80;63.10;;;;;;5054091;28;20403;-65
2022/09/05 10:14:15;;;;;;;4.80;4.50;;;30.00;59.70;;;;;;5054098;28;20452;-65
2022/09/05 10:17:02;;;;;;;4.83;4.63;;;30.10;59.60;;;;;;5007450;28;20469;-64
2022/09/05 10:19:49;;;;;;;4.93;4.63;;;30.10;60.80;;;;;;5011462;28;20399;-65
2022/09/05 10:22:29;;;;;;;5.50;5.30;;;30.00;61.30;;;;;;4991429;28;20411;-72
2022/09/05 10:25:00;;;;;;;4.77;4.23;;;29.70;61.00;;;;;;4993163;28;20438;-65
2022/09/05 10:27:36;;;;;;;5.27;4.87;;;29.60;62.10;;;;;;5000746;28;20452;-66
2022/09/05 10:30:07;;;;;;;5.13;4.83;;;29.40;63.60;;;;;;4995773;28;20418;-65
2022/09/05 10:32:49;;;;;;;4.70;4.50;;;29.30;63.40;;;;;;5011563;28;20484;-65
2022/09/05 10:35:33;;;;;;;5.40;5.10;;;29.10;63.90;;;;;;5006102;28;20889;-65
2022/09/05 10:38:10;;;;;;;5.57;5.37;;;28.90;64.30;;;;;;4986955;28;20482;-65
2022/09/05 10:40:38;;;;;;;6.13;5.73;;;28.70;66.10;;;;;;4991783;28;20407;-64
2022/09/05 10:43:27;;;;;;;5.97;5.57;;;28.70;64.90;;;;;;4992249;28;20585;-63
2022/09/05 10:45:55;;;;;;;5.17;4.97;;;28.50;64.70;;;;;;4992231;28;20411;-64
2022/09/05 10:48:26;;;;;;;5.13;4.93;;;28.40;65.70;;;;;;5023364;28;20448;-65
2022/09/05 10:51:08;;;;;;;6.60;6.20;;;28.40;67.30;;;;;;5035929;28;20465;-65
2022/09/05 10:53:51;;;;;;;6.80;6.30;;;28.30;68.30;;;;;;5047703;28;20471;-64
2022/09/05 10:56:23;;;;;;;5.97;5.53;;;28.40;70.70;;;;;;5053003;28;20530;-63
2022/09/05 10:59:03;;;;;;;5.53;5.33;;;28.50;70.20;;;;;;5053759;28;20392;-63
2022/09/05 11:01:40;;;;;;;5.47;5.07;;;28.80;68.70;;;;;;5053157;28;20427;-64
2022/09/05 11:04:20;;;;;;;4.87;4.67;;;29.10;68.80;;;;;;5051339;28;20443;-63
2022/09/05 11:06:56;;;;;;;5.67;5.27;;;29.20;64.90;;;;;;5053260;28;20914;-64
2022/09/05 11:09:21;;;;;;;5.00;4.77;;;29.20;63.20;;;;;;5051963;28;20411;-64
2022/09/05 11:12:18;;;;;;;5.77;5.50;;;29.10;62.60;;;;;;5035302;28;20415;-64
2022/09/05 11:14:51;;;;;;;4.87;4.57;;;29.20;64.40;;;;;;5037337;28;20280;-64
2022/09/05 11:17:25;;;;;;;4.50;4.20;;;29.10;59.80;;;;;;5039922;28;20482;-64
2022/09/05 11:20:43;;;;;;;5.00;4.70;;;29.10;59.50;;;;;;5034867;28;20470;-63
2022/09/05 11:23:16;;;;;;;4.10;3.90;;;29.10;60.70;;;;;;4988819;28;20978;-63
2022/09/05 11:25:46;;;;;;;4.80;4.50;;;29.00;60.20;;;;;;5052301;28;20401;-64
2022/09/05 11:28:32;;;;;;;4.50;4.30;;;29.00;59.50;;;;;;5052939;28;20884;-64
2022/09/05 11:31:00;;;;;;;4.60;4.40;;;29.00;59.20;;;;;;5050602;28;20419;-62
2022/09/05 11:33:31;;;;;;;5.07;4.87;;;29.10;59.30;;;;;;5044334;28;20429;-66
2022/09/05 11:36:20;;;;;;;4.57;4.37;;;29.20;59.00;;;;;;5038521;28;20447;-64
2022/09/05 11:39:08;;;;;;;4.60;4.40;;;29.20;58.70;;;;;;5021574;28;20564;-64
2022/09/05 11:41:52;;;;;;;4.83;4.63;;;29.10;58.20;;;;;;5038977;28;20534;-65
2022/09/05 11:44:29;;;;;;;6.00;5.67;;;29.10;58.90;;;;;;5036694;28;20431;-67
2022/09/05 11:47:03;;;;;;;5.73;5.23;;;29.30;59.90;;;;;;5048286;28;20501;-65
2022/09/05 11:50:00;;;;;;;4.77;4.47;;;29.30;58.30;;;;;;5005280;28;20434;-65
2022/09/05 11:52:29;;;;;;;4.53;4.33;;;29.10;59.30;;;;;;5032319;28;20458;-65
2022/09/05 11:55:13;;;;;;;4.63;4.43;;;29.20;59.20;;;;;;5031917;28;20575;-64
2022/09/05 11:58:05;;;;;;;4.63;4.43;;;29.30;59.90;;;;;;5012633;28;21065;-65
2022/09/05 12:00:41;;;;;;;4.40;4.20;;;29.40;59.00;;;;;;5045643;28;20985;-65
2022/09/05 12:03:37;;;;;;;3.83;3.73;;;29.30;57.90;;;;;;5049778;28;20428;-64
2022/09/05 12:06:34;;;;;;;4.60;4.30;;;29.20;58.10;;;;;;5043872;28;20429;-64
2022/09/05 12:09:09;;;;;;;4.40;4.20;;;29.40;58.70;;;;;;5033191;28;20430;-64
2022/09/05 12:11:53;;;;;;;4.00;3.80;;;29.60;59.20;;;;;;5028297;28;20436;-64
2022/09/05 12:14:31;;;;;;;4.87;4.57;;;29.80;59.50;;;;;;5028849;28;20451;-69
2022/09/05 12:17:18;;;;;;;4.90;4.60;;;29.80;56.30;;;;;;5047726;28;20566;-64
2022/09/05 12:20:10;;;;;;;4.40;4.20;;;29.90;59.20;;;;;;5033596;28;20438;-65
2022/09/05 12:22:42;;;;;;;4.97;4.67;;;30.00;56.90;;;;;;5062467;28;20442;-65
2022/09/05 12:25:32;;;;;;;4.47;4.27;;;30.10;57.90;;;;;;5071035;28;20466;-65
2022/09/05 12:28:06;;;;;;;4.60;4.30;;;30.20;57.30;;;;;;5053639;28;20442;-65
2022/09/05 12:30:37;;;;;;;4.20;3.90;;;30.30;56.90;;;;;;5056405;28;20450;-65
2022/09/05 12:33:11;;;;;;;4.80;4.50;;;30.20;55.10;;;;;;5062155;28;20427;-61
2022/09/05 12:36:03;;;;;;;4.23;4.00;;;29.90;54.30;;;;;;5067094;28;20427;-61
2022/09/05 12:38:33;;;;;;;10.63;9.83;;;29.90;55.00;;;;;;5059318;28;20431;-62
2022/09/05 12:41:10;;;;;;;4.80;4.60;;;29.90;56.80;;;;;;5076286;28;20443;-61
2022/09/05 12:43:44;;;;;;;5.47;5.03;;;30.00;56.10;;;;;;5062941;28;20423;-61
2022/09/05 12:46:25;;;;;;;4.40;4.20;;;30.10;55.30;;;;;;5076560;28;20454;-61
2022/09/05 12:49:05;;;;;;;4.13;4.03;;;30.10;54.50;;;;;;5076214;28;20387;-61
2022/09/05 12:51:36;;;;;;;4.47;4.27;;;30.10;55.70;;;;;;5049420;28;21014;-61
2022/09/05 12:54:12;;;;;;;4.37;4.17;;;30.20;55.40;;;;;;5049749;28;20919;-61
2022/09/05 12:56:46;;;;;;;4.13;3.93;;;30.30;55.70;;;;;;5055266;28;20451;-62
2022/09/05 12:59:20;;;;;;;4.60;4.40;;;30.30;54.80;;;;;;5056412;28;20388;-61
2022/09/05 13:02:04;;;;;;;4.87;4.67;;;30.40;55.10;;;;;;5037855;28;20454;-61
2022/09/05 13:04:45;;;;;;;4.53;4.33;;;30.40;54.60;;;;;;5027999;28;20436;-61
2022/09/05 13:07:22;;;;;;;4.43;4.17;;;30.50;53.60;;;;;;5035672;28;20397;-62
2022/09/05 13:09:55;;;;;;;4.23;4.03;;;30.60;53.60;;;;;;5018352;28;20495;-61
2022/09/05 13:12:29;;;;;;;4.43;4.23;;;30.40;52.90;;;;;;5019413;28;20486;-66
2022/09/05 13:15:02;;;;;;;4.43;4.23;;;30.50;54.10;;;;;;5037547;28;20400;-61
2022/09/05 13:18:02;;;;;;;4.90;4.70;;;30.50;54.50;;;;;;5054482;28;20451;-61
2022/09/05 13:20:35;;;;;;;4.57;4.37;;;30.60;52.90;;;;;;5036672;28;20444;-61
2022/09/05 13:23:09;;;;;;;4.57;4.30;;;30.60;52.50;;;;;;5054117;28;20502;-61
2022/09/05 13:25:38;;;;;;;4.27;4.07;;;30.60;52.70;;;;;;5054538;28;20415;-61
2022/09/05 13:28:08;;;;;;;3.90;3.60;;;30.60;52.50;;;;;;5055411;28;20495;-61
2022/09/05 13:30:48;;;;;;;4.40;4.20;;;30.60;52.70;;;;;;5054445;28;20883;-61
2022/09/05 13:33:31;;;;;;;4.30;4.10;;;30.60;51.50;;;;;;5052603;28;20435;-62
2022/09/05 13:36:04;;;;;;;4.60;4.40;;;30.50;52.10;;;;;;5055636;28;20430;-62
2022/09/05 13:39:03;;;;;;;3.83;3.63;;;30.10;50.80;;;;;;5054901;28;20750;-61
2022/09/05 13:41:35;;;;;;;3.40;3.30;;;29.80;51.90;;;;;;5054821;28;20487;-62
2022/09/05 13:44:19;;;;;;;4.33;4.13;;;29.70;52.60;;;;;;5052958;28;20428;-62
2022/09/05 13:46:59;;;;;;;4.00;3.80;;;29.70;52.80;;;;;;5054796;28;20404;-62
2022/09/05 13:49:55;;;;;;;4.40;4.00;;;29.60;53.30;;;;;;5002704;28;20405;-61